sensor_id;sensor_type;location;lat;lon;timestamp;P1;durP1;ratioP1;P2;durP2;ratioP2
76039;SDS011;64736;50.462;4.850;2022-10-30T00:02:17;9.57;;;4.82;;
76039;SDS011;64736;50.462;4.850;2022-10-30T00:04:43;10.18;;;4.03;;
76039;SDS011;64736;50.462;4.850;2022-10-30T00:07:08;12.45;;;6.03;;
76039;SDS011;64736;50.462;4.850;2022-10-30T00:09:34;11.05;;;5.57;;
76039;SDS011;64736;50.462;4.850;2022-10-30T00:11:59;11.57;;;6.63;;
76039;SDS011;64736;50.462;4.850;2022-10-30T00:14:25;11.85;;;5.15;;
76039;SDS011;64736;50.462;4.850;2022-10-30T00:16:51;9.90;;;4.07;;
76039;SDS011;64736;50.462;4.850;2022-10-30T00:19:16;7.78;;;4.28;;
76039;SDS011;64736;50.462;4.850;2022-10-30T00:21:42;11.80;;;4.68;;
76039;SDS011;64736;50.462;4.850;2022-10-30T00:24:08;10.05;;;4.30;;
76039;SDS011;64736;50.462;4.850;2022-10-30T00:26:35;7.30;;;3.88;;
76039;SDS011;64736;50.462;4.850;2022-10-30T00:29:01;9.35;;;4.30;;
76039;SDS011;64736;50.462;4.850;2022-10-30T00:31:26;8.43;;;4.25;;
76039;SDS011;64736;50.462;4.850;2022-10-30T00:33:52;7.93;;;3.67;;
76039;SDS011;64736;50.462;4.850;2022-10-30T00:36:19;7.60;;;3.83;;
76039;SDS011;64736;50.462;4.850;2022-10-30T00:38:45;9.57;;;4.22;;
76039;SDS011;64736;50.462;4.850;2022-10-30T00:41:19;10.80;;;4.50;;
76039;SDS011;64736;50.462;4.850;2022-10-30T00:43:47;9.85;;;4.60;;
76039;SDS011;64736;50.462;4.850;2022-10-30T00:49:05;9.95;;;5.07;;
76039;SDS011;64736;50.462;4.850;2022-10-30T00:51:37;10.35;;;4.55;;
76039;SDS011;64736;50.462;4.850;2022-10-30T00:54:05;7.43;;;4.93;;
76039;SDS011;64736;50.462;4.850;2022-10-30T00:56:32;8.95;;;5.18;;
76039;SDS011;64736;50.462;4.850;2022-10-30T00:59:12;11.05;;;3.97;;
76039;SDS011;64736;50.462;4.850;2022-10-30T01:01:45;8.85;;;4.55;;
76039;SDS011;64736;50.462;4.850;2022-10-30T01:04:12;7.72;;;3.88;;
76039;SDS011;64736;50.462;4.850;2022-10-30T01:06:40;9.90;;;4.05;;
76039;SDS011;64736;50.462;4.850;2022-10-30T01:09:12;8.13;;;3.50;;
76039;SDS011;64736;50.462;4.850;2022-10-30T01:11:39;9.35;;;4.38;;
76039;SDS011;64736;50.462;4.850;2022-10-30T01:14:06;11.45;;;4.40;;
76039;SDS011;64736;50.462;4.850;2022-10-30T01:19:22;8.80;;;4.57;;
76039;SDS011;64736;50.462;4.850;2022-10-30T01:24:53;9.70;;;3.90;;
76039;SDS011;64736;50.462;4.850;2022-10-30T01:30:05;10.70;;;4.55;;
76039;SDS011;64736;50.462;4.850;2022-10-30T01:38:53;10.57;;;5.00;;
76039;SDS011;64736;50.462;4.850;2022-10-30T01:41:26;10.32;;;4.82;;
76039;SDS011;64736;50.462;4.850;2022-10-30T01:43:53;10.85;;;4.43;;
76039;SDS011;64736;50.462;4.850;2022-10-30T02:00:10;8.93;;;4.05;;
76039;SDS011;64736;50.462;4.850;2022-10-30T02:02:37;7.10;;;3.45;;
76039;SDS011;64736;50.462;4.850;2022-10-30T02:05:04;8.63;;;4.93;;
76039;SDS011;64736;50.462;4.850;2022-10-30T02:07:32;11.20;;;5.97;;
76039;SDS011;64736;50.462;4.850;2022-10-30T02:09:58;10.13;;;5.30;;
76039;SDS011;64736;50.462;4.850;2022-10-30T02:12:23;9.23;;;4.78;;
76039;SDS011;64736;50.462;4.850;2022-10-30T02:14:52;11.40;;;5.13;;
76039;SDS011;64736;50.462;4.850;2022-10-30T02:17:22;7.80;;;4.43;;
76039;SDS011;64736;50.462;4.850;2022-10-30T02:19:48;14.07;;;4.70;;
76039;SDS011;64736;50.462;4.850;2022-10-30T02:22:14;8.75;;;4.93;;
76039;SDS011;64736;50.462;4.850;2022-10-30T02:24:42;10.23;;;5.57;;
76039;SDS011;64736;50.462;4.850;2022-10-30T02:27:08;8.63;;;4.55;;
76039;SDS011;64736;50.462;4.850;2022-10-30T02:29:34;9.70;;;5.47;;
76039;SDS011;64736;50.462;4.850;2022-10-30T02:32:00;9.90;;;5.35;;
76039;SDS011;64736;50.462;4.850;2022-10-30T02:34:26;13.52;;;6.85;;
76039;SDS011;64736;50.462;4.850;2022-10-30T02:36:52;12.23;;;5.93;;
76039;SDS011;64736;50.462;4.850;2022-10-30T02:39:18;11.95;;;5.43;;
76039;SDS011;64736;50.462;4.850;2022-10-30T02:41:45;12.95;;;6.45;;
76039;SDS011;64736;50.462;4.850;2022-10-30T02:44:11;11.43;;;6.35;;
76039;SDS011;64736;50.462;4.850;2022-10-30T02:46:37;12.57;;;7.53;;
76039;SDS011;64736;50.462;4.850;2022-10-30T02:49:03;10.15;;;6.88;;
76039;SDS011;64736;50.462;4.850;2022-10-30T02:51:29;12.93;;;7.22;;
76039;SDS011;64736;50.462;4.850;2022-10-30T02:53:56;11.57;;;6.57;;
76039;SDS011;64736;50.462;4.850;2022-10-30T02:56:23;10.52;;;5.18;;
76039;SDS011;64736;50.462;4.850;2022-10-30T02:58:48;11.55;;;5.57;;
76039;SDS011;64736;50.462;4.850;2022-10-30T03:01:15;10.18;;;5.32;;
76039;SDS011;64736;50.462;4.850;2022-10-30T03:03:43;8.98;;;5.13;;
76039;SDS011;64736;50.462;4.850;2022-10-30T03:06:09;10.82;;;5.45;;
76039;SDS011;64736;50.462;4.850;2022-10-30T03:08:37;8.90;;;5.22;;
76039;SDS011;64736;50.462;4.850;2022-10-30T03:11:06;10.18;;;5.63;;
76039;SDS011;64736;50.462;4.850;2022-10-30T03:13:34;10.75;;;6.43;;
76039;SDS011;64736;50.462;4.850;2022-10-30T03:16:04;8.70;;;5.60;;
76039;SDS011;64736;50.462;4.850;2022-10-30T03:18:32;13.50;;;6.30;;
76039;SDS011;64736;50.462;4.850;2022-10-30T03:20:59;13.15;;;6.78;;
76039;SDS011;64736;50.462;4.850;2022-10-30T03:23:26;14.52;;;7.43;;
76039;SDS011;64736;50.462;4.850;2022-10-30T03:25:56;13.68;;;6.50;;
76039;SDS011;64736;50.462;4.850;2022-10-30T03:28:23;11.10;;;4.93;;
76039;SDS011;64736;50.462;4.850;2022-10-30T03:30:51;12.48;;;5.70;;
76039;SDS011;64736;50.462;4.850;2022-10-30T03:33:22;10.85;;;5.53;;
76039;SDS011;64736;50.462;4.850;2022-10-30T03:35:48;9.52;;;4.65;;
76039;SDS011;64736;50.462;4.850;2022-10-30T03:38:14;10.23;;;5.85;;
76039;SDS011;64736;50.462;4.850;2022-10-30T03:40:40;12.02;;;5.78;;
76039;SDS011;64736;50.462;4.850;2022-10-30T03:43:06;7.93;;;4.95;;
76039;SDS011;64736;50.462;4.850;2022-10-30T03:45:32;9.27;;;5.22;;
76039;SDS011;64736;50.462;4.850;2022-10-30T03:48:01;11.85;;;5.13;;
76039;SDS011;64736;50.462;4.850;2022-10-30T03:50:28;9.95;;;4.88;;
76039;SDS011;64736;50.462;4.850;2022-10-30T03:52:54;8.82;;;4.85;;
76039;SDS011;64736;50.462;4.850;2022-10-30T03:55:20;7.70;;;4.20;;
76039;SDS011;64736;50.462;4.850;2022-10-30T03:57:46;10.57;;;5.05;;
76039;SDS011;64736;50.462;4.850;2022-10-30T04:00:12;9.90;;;4.57;;
76039;SDS011;64736;50.462;4.850;2022-10-30T04:02:38;7.72;;;4.45;;
76039;SDS011;64736;50.462;4.850;2022-10-30T04:05:04;12.52;;;6.65;;
76039;SDS011;64736;50.462;4.850;2022-10-30T04:07:30;14.48;;;7.32;;
76039;SDS011;64736;50.462;4.850;2022-10-30T04:09:55;11.95;;;7.07;;
76039;SDS011;64736;50.462;4.850;2022-10-30T04:12:21;15.27;;;7.10;;
76039;SDS011;64736;50.462;4.850;2022-10-30T04:14:47;11.02;;;7.13;;
76039;SDS011;64736;50.462;4.850;2022-10-30T04:17:12;11.90;;;7.95;;
76039;SDS011;64736;50.462;4.850;2022-10-30T04:19:38;11.73;;;6.95;;
76039;SDS011;64736;50.462;4.850;2022-10-30T04:22:04;9.45;;;5.63;;
76039;SDS011;64736;50.462;4.850;2022-10-30T04:24:30;9.07;;;5.13;;
76039;SDS011;64736;50.462;4.850;2022-10-30T04:26:56;13.68;;;6.88;;
76039;SDS011;64736;50.462;4.850;2022-10-30T04:29:21;13.27;;;6.97;;
76039;SDS011;64736;50.462;4.850;2022-10-30T04:31:47;11.75;;;7.85;;
76039;SDS011;64736;50.462;4.850;2022-10-30T04:34:13;13.02;;;6.78;;
76039;SDS011;64736;50.462;4.850;2022-10-30T04:36:39;11.95;;;7.35;;
76039;SDS011;64736;50.462;4.850;2022-10-30T04:39:04;10.40;;;5.97;;
76039;SDS011;64736;50.462;4.850;2022-10-30T04:41:30;11.10;;;5.60;;
76039;SDS011;64736;50.462;4.850;2022-10-30T04:43:56;13.23;;;5.85;;
76039;SDS011;64736;50.462;4.850;2022-10-30T04:46:21;11.00;;;6.45;;
76039;SDS011;64736;50.462;4.850;2022-10-30T04:48:47;10.68;;;7.40;;
76039;SDS011;64736;50.462;4.850;2022-10-30T04:51:13;10.85;;;5.97;;
76039;SDS011;64736;50.462;4.850;2022-10-30T04:53:40;10.88;;;5.32;;
76039;SDS011;64736;50.462;4.850;2022-10-30T04:56:06;11.93;;;6.63;;
76039;SDS011;64736;50.462;4.850;2022-10-30T04:58:32;14.07;;;7.13;;
76039;SDS011;64736;50.462;4.850;2022-10-30T05:01:01;13.70;;;5.88;;
76039;SDS011;64736;50.462;4.850;2022-10-30T05:03:28;13.70;;;6.20;;
76039;SDS011;64736;50.462;4.850;2022-10-30T05:05:55;9.48;;;5.63;;
76039;SDS011;64736;50.462;4.850;2022-10-30T05:08:23;8.02;;;5.78;;
76039;SDS011;64736;50.462;4.850;2022-10-30T05:10:50;9.90;;;4.80;;
76039;SDS011;64736;50.462;4.850;2022-10-30T05:13:15;9.80;;;4.85;;
76039;SDS011;64736;50.462;4.850;2022-10-30T05:15:41;10.07;;;4.72;;
76039;SDS011;64736;50.462;4.850;2022-10-30T05:18:07;10.25;;;5.88;;
76039;SDS011;64736;50.462;4.850;2022-10-30T05:20:32;8.30;;;4.55;;
76039;SDS011;64736;50.462;4.850;2022-10-30T05:22:58;9.35;;;4.70;;
76039;SDS011;64736;50.462;4.850;2022-10-30T05:25:25;9.38;;;5.25;;
76039;SDS011;64736;50.462;4.850;2022-10-30T05:28:01;14.68;;;6.53;;
76039;SDS011;64736;50.462;4.850;2022-10-30T05:30:29;12.98;;;6.47;;
76039;SDS011;64736;50.462;4.850;2022-10-30T05:32:57;12.20;;;5.00;;
76039;SDS011;64736;50.462;4.850;2022-10-30T05:35:27;10.07;;;5.10;;
76039;SDS011;64736;50.462;4.850;2022-10-30T05:37:54;10.35;;;4.90;;
76039;SDS011;64736;50.462;4.850;2022-10-30T05:40:19;11.00;;;4.97;;
76039;SDS011;64736;50.462;4.850;2022-10-30T05:42:46;8.65;;;5.78;;
76039;SDS011;64736;50.462;4.850;2022-10-30T05:45:12;12.32;;;6.47;;
76039;SDS011;64736;50.462;4.850;2022-10-30T05:47:38;10.85;;;6.45;;
76039;SDS011;64736;50.462;4.850;2022-10-30T05:50:04;9.68;;;5.93;;
76039;SDS011;64736;50.462;4.850;2022-10-30T05:52:31;14.57;;;6.40;;
76039;SDS011;64736;50.462;4.850;2022-10-30T05:54:56;10.13;;;5.75;;
76039;SDS011;64736;50.462;4.850;2022-10-30T05:57:22;11.85;;;6.45;;
76039;SDS011;64736;50.462;4.850;2022-10-30T05:59:48;9.05;;;4.75;;
76039;SDS011;64736;50.462;4.850;2022-10-30T06:02:15;8.68;;;4.90;;
76039;SDS011;64736;50.462;4.850;2022-10-30T06:04:41;15.45;;;6.72;;
76039;SDS011;64736;50.462;4.850;2022-10-30T06:07:07;9.85;;;5.68;;
76039;SDS011;64736;50.462;4.850;2022-10-30T06:09:34;11.80;;;6.03;;
76039;SDS011;64736;50.462;4.850;2022-10-30T06:12:00;13.32;;;7.95;;
76039;SDS011;64736;50.462;4.850;2022-10-30T06:14:25;10.63;;;6.80;;
76039;SDS011;64736;50.462;4.850;2022-10-30T06:16:51;11.88;;;6.95;;
76039;SDS011;64736;50.462;4.850;2022-10-30T06:19:17;11.10;;;5.82;;
76039;SDS011;64736;50.462;4.850;2022-10-30T06:21:43;13.25;;;6.55;;
76039;SDS011;64736;50.462;4.850;2022-10-30T06:24:08;12.25;;;6.75;;
76039;SDS011;64736;50.462;4.850;2022-10-30T06:26:34;13.80;;;8.05;;
76039;SDS011;64736;50.462;4.850;2022-10-30T06:29:00;9.88;;;6.10;;
76039;SDS011;64736;50.462;4.850;2022-10-30T06:31:26;11.30;;;5.60;;
76039;SDS011;64736;50.462;4.850;2022-10-30T06:33:51;9.00;;;5.50;;
76039;SDS011;64736;50.462;4.850;2022-10-30T06:36:17;10.18;;;5.38;;
76039;SDS011;64736;50.462;4.850;2022-10-30T06:38:43;10.82;;;6.15;;
76039;SDS011;64736;50.462;4.850;2022-10-30T06:41:09;8.50;;;5.05;;
76039;SDS011;64736;50.462;4.850;2022-10-30T06:43:35;11.80;;;5.72;;
76039;SDS011;64736;50.462;4.850;2022-10-30T06:46:00;13.05;;;8.00;;
76039;SDS011;64736;50.462;4.850;2022-10-30T06:48:26;12.68;;;7.25;;
76039;SDS011;64736;50.462;4.850;2022-10-30T06:50:53;13.43;;;7.75;;
76039;SDS011;64736;50.462;4.850;2022-10-30T06:53:19;14.95;;;8.13;;
76039;SDS011;64736;50.462;4.850;2022-10-30T06:55:52;11.05;;;6.30;;
76039;SDS011;64736;50.462;4.850;2022-10-30T06:58:22;11.80;;;7.40;;
76039;SDS011;64736;50.462;4.850;2022-10-30T07:00:48;9.73;;;6.13;;
76039;SDS011;64736;50.462;4.850;2022-10-30T07:03:14;9.88;;;5.93;;
76039;SDS011;64736;50.462;4.850;2022-10-30T07:05:40;12.93;;;5.75;;
76039;SDS011;64736;50.462;4.850;2022-10-30T07:08:06;12.00;;;8.10;;
76039;SDS011;64736;50.462;4.850;2022-10-30T07:10:32;14.38;;;7.15;;
76039;SDS011;64736;50.462;4.850;2022-10-30T07:12:57;11.32;;;8.07;;
76039;SDS011;64736;50.462;4.850;2022-10-30T07:15:24;12.68;;;8.05;;
76039;SDS011;64736;50.462;4.850;2022-10-30T07:17:51;15.00;;;7.40;;
76039;SDS011;64736;50.462;4.850;2022-10-30T07:20:18;12.07;;;6.28;;
76039;SDS011;64736;50.462;4.850;2022-10-30T07:22:44;10.57;;;5.90;;
76039;SDS011;64736;50.462;4.850;2022-10-30T07:25:10;13.60;;;7.00;;
76039;SDS011;64736;50.462;4.850;2022-10-30T07:27:46;12.63;;;6.80;;
76039;SDS011;64736;50.462;4.850;2022-10-30T07:30:13;11.90;;;8.05;;
76039;SDS011;64736;50.462;4.850;2022-10-30T07:32:41;13.07;;;7.83;;
76039;SDS011;64736;50.462;4.850;2022-10-30T07:35:08;14.23;;;7.82;;
76039;SDS011;64736;50.462;4.850;2022-10-30T07:37:36;12.93;;;6.57;;
76039;SDS011;64736;50.462;4.850;2022-10-30T07:40:03;13.48;;;6.75;;
76039;SDS011;64736;50.462;4.850;2022-10-30T07:42:29;10.90;;;6.82;;
76039;SDS011;64736;50.462;4.850;2022-10-30T07:44:55;13.23;;;7.53;;
76039;SDS011;64736;50.462;4.850;2022-10-30T07:47:20;13.05;;;8.05;;
76039;SDS011;64736;50.462;4.850;2022-10-30T07:49:46;14.93;;;8.80;;
76039;SDS011;64736;50.462;4.850;2022-10-30T07:52:12;15.02;;;8.68;;
76039;SDS011;64736;50.462;4.850;2022-10-30T07:54:37;11.82;;;8.57;;
76039;SDS011;64736;50.462;4.850;2022-10-30T07:57:03;14.40;;;8.57;;
76039;SDS011;64736;50.462;4.850;2022-10-30T07:59:29;12.40;;;7.72;;
76039;SDS011;64736;50.462;4.850;2022-10-30T08:01:54;11.98;;;7.15;;
76039;SDS011;64736;50.462;4.850;2022-10-30T08:04:20;12.93;;;7.28;;
76039;SDS011;64736;50.462;4.850;2022-10-30T08:06:46;12.88;;;7.85;;
76039;SDS011;64736;50.462;4.850;2022-10-30T08:09:11;15.27;;;7.40;;
76039;SDS011;64736;50.462;4.850;2022-10-30T08:11:37;13.57;;;7.95;;
76039;SDS011;64736;50.462;4.850;2022-10-30T08:14:02;12.38;;;7.38;;
76039;SDS011;64736;50.462;4.850;2022-10-30T08:16:28;13.13;;;7.80;;
76039;SDS011;64736;50.462;4.850;2022-10-30T08:18:54;12.48;;;7.38;;
76039;SDS011;64736;50.462;4.850;2022-10-30T08:21:20;13.93;;;6.63;;
76039;SDS011;64736;50.462;4.850;2022-10-30T08:23:46;14.50;;;8.13;;
76039;SDS011;64736;50.462;4.850;2022-10-30T08:26:12;12.75;;;7.70;;
76039;SDS011;64736;50.462;4.850;2022-10-30T08:28:38;10.20;;;7.18;;
76039;SDS011;64736;50.462;4.850;2022-10-30T08:31:04;9.77;;;7.18;;
76039;SDS011;64736;50.462;4.850;2022-10-30T08:33:30;11.63;;;6.68;;
76039;SDS011;64736;50.462;4.850;2022-10-30T08:35:56;15.25;;;7.78;;
76039;SDS011;64736;50.462;4.850;2022-10-30T08:38:24;11.98;;;7.03;;
76039;SDS011;64736;50.462;4.850;2022-10-30T08:40:50;15.02;;;7.75;;
76039;SDS011;64736;50.462;4.850;2022-10-30T08:43:16;9.13;;;6.57;;
76039;SDS011;64736;50.462;4.850;2022-10-30T08:45:42;10.63;;;6.13;;
76039;SDS011;64736;50.462;4.850;2022-10-30T08:48:11;11.52;;;6.30;;
76039;SDS011;64736;50.462;4.850;2022-10-30T08:50:39;12.15;;;6.20;;
76039;SDS011;64736;50.462;4.850;2022-10-30T08:53:06;11.35;;;6.43;;
76039;SDS011;64736;50.462;4.850;2022-10-30T08:55:35;15.20;;;7.10;;
76039;SDS011;64736;50.462;4.850;2022-10-30T08:58:01;11.52;;;6.00;;
76039;SDS011;64736;50.462;4.850;2022-10-30T09:00:27;10.00;;;6.10;;
76039;SDS011;64736;50.462;4.850;2022-10-30T09:02:53;11.68;;;5.93;;
76039;SDS011;64736;50.462;4.850;2022-10-30T09:05:19;11.68;;;5.50;;
76039;SDS011;64736;50.462;4.850;2022-10-30T09:07:45;9.35;;;6.03;;
76039;SDS011;64736;50.462;4.850;2022-10-30T09:10:12;12.88;;;6.07;;
76039;SDS011;64736;50.462;4.850;2022-10-30T09:12:38;13.50;;;5.53;;
76039;SDS011;64736;50.462;4.850;2022-10-30T09:15:05;12.00;;;5.63;;
76039;SDS011;64736;50.462;4.850;2022-10-30T09:17:31;9.73;;;5.70;;
76039;SDS011;64736;50.462;4.850;2022-10-30T09:19:58;7.65;;;4.88;;
76039;SDS011;64736;50.462;4.850;2022-10-30T09:22:24;10.75;;;5.63;;
76039;SDS011;64736;50.462;4.850;2022-10-30T09:24:50;10.65;;;5.38;;
76039;SDS011;64736;50.462;4.850;2022-10-30T09:27:15;9.23;;;5.03;;
76039;SDS011;64736;50.462;4.850;2022-10-30T09:29:41;10.32;;;3.80;;
76039;SDS011;64736;50.462;4.850;2022-10-30T09:32:07;9.40;;;4.82;;
76039;SDS011;64736;50.462;4.850;2022-10-30T09:34:34;12.40;;;4.93;;
76039;SDS011;64736;50.462;4.850;2022-10-30T09:37:01;11.82;;;5.18;;
76039;SDS011;64736;50.462;4.850;2022-10-30T09:39:27;10.48;;;4.35;;
76039;SDS011;64736;50.462;4.850;2022-10-30T09:42:07;10.52;;;5.28;;
76039;SDS011;64736;50.462;4.850;2022-10-30T09:50:23;14.15;;;5.35;;
76039;SDS011;64736;50.462;4.850;2022-10-30T09:55:50;8.43;;;4.60;;
76039;SDS011;64736;50.462;4.850;2022-10-30T09:58:32;7.40;;;3.83;;
76039;SDS011;64736;50.462;4.850;2022-10-30T10:06:00;9.82;;;5.40;;
76039;SDS011;64736;50.462;4.850;2022-10-30T10:08:31;10.40;;;4.28;;
76039;SDS011;64736;50.462;4.850;2022-10-30T10:11:50;8.15;;;4.35;;
76039;SDS011;64736;50.462;4.850;2022-10-30T10:14:16;7.75;;;4.40;;
76039;SDS011;64736;50.462;4.850;2022-10-30T10:16:47;8.90;;;5.07;;
76039;SDS011;64736;50.462;4.850;2022-10-30T10:19:19;9.77;;;4.75;;
76039;SDS011;64736;50.462;4.850;2022-10-30T10:21:52;9.95;;;5.00;;
76039;SDS011;64736;50.462;4.850;2022-10-30T10:24:21;9.32;;;4.50;;
76039;SDS011;64736;50.462;4.850;2022-10-30T10:29:31;7.78;;;4.10;;
76039;SDS011;64736;50.462;4.850;2022-10-30T10:35:23;8.80;;;4.65;;
76039;SDS011;64736;50.462;4.850;2022-10-30T10:43:59;5.95;;;3.70;;
76039;SDS011;64736;50.462;4.850;2022-10-30T10:46:48;9.10;;;4.18;;
76039;SDS011;64736;50.462;4.850;2022-10-30T10:52:37;9.68;;;3.90;;
76039;SDS011;64736;50.462;4.850;2022-10-30T10:55:15;9.85;;;3.72;;
76039;SDS011;64736;50.462;4.850;2022-10-30T10:57:43;7.65;;;3.95;;
76039;SDS011;64736;50.462;4.850;2022-10-30T11:08:05;8.57;;;3.63;;
76039;SDS011;64736;50.462;4.850;2022-10-30T11:10:39;9.63;;;3.58;;
76039;SDS011;64736;50.462;4.850;2022-10-30T11:13:05;7.38;;;3.65;;
76039;SDS011;64736;50.462;4.850;2022-10-30T11:15:39;9.52;;;3.50;;
76039;SDS011;64736;50.462;4.850;2022-10-30T11:18:10;8.60;;;3.28;;
76039;SDS011;64736;50.462;4.850;2022-10-30T11:23:29;9.13;;;3.80;;
76039;SDS011;64736;50.462;4.850;2022-10-30T11:25:56;8.93;;;3.70;;
76039;SDS011;64736;50.462;4.850;2022-10-30T11:28:30;8.45;;;3.47;;
76039;SDS011;64736;50.462;4.850;2022-10-30T11:33:46;9.27;;;3.72;;
76039;SDS011;64736;50.462;4.850;2022-10-30T11:36:13;8.45;;;3.45;;
76039;SDS011;64736;50.462;4.850;2022-10-30T11:38:40;7.70;;;3.22;;
76039;SDS011;64736;50.462;4.850;2022-10-30T11:41:05;8.98;;;3.50;;
76039;SDS011;64736;50.462;4.850;2022-10-30T11:43:34;6.72;;;3.53;;
76039;SDS011;64736;50.462;4.850;2022-10-30T11:46:03;10.60;;;3.10;;
76039;SDS011;64736;50.462;4.850;2022-10-30T11:48:35;6.93;;;3.10;;
76039;SDS011;64736;50.462;4.850;2022-10-30T11:51:03;9.50;;;3.58;;
76039;SDS011;64736;50.462;4.850;2022-10-30T11:53:33;7.85;;;3.35;;
76039;SDS011;64736;50.462;4.850;2022-10-30T11:56:17;9.82;;;3.83;;
76039;SDS011;64736;50.462;4.850;2022-10-30T11:58:46;8.23;;;3.15;;
76039;SDS011;64736;50.462;4.850;2022-10-30T12:01:20;6.70;;;3.17;;
76039;SDS011;64736;50.462;4.850;2022-10-30T12:03:48;7.45;;;3.65;;
76039;SDS011;64736;50.462;4.850;2022-10-30T12:06:16;7.20;;;3.08;;
76039;SDS011;64736;50.462;4.850;2022-10-30T12:11:26;8.07;;;3.53;;
76039;SDS011;64736;50.462;4.850;2022-10-30T12:13:56;6.05;;;3.13;;
76039;SDS011;64736;50.462;4.850;2022-10-30T12:16:23;8.63;;;3.53;;
76039;SDS011;64736;50.462;4.850;2022-10-30T12:18:53;7.95;;;3.50;;
76039;SDS011;64736;50.462;4.850;2022-10-30T12:21:26;6.22;;;3.50;;
76039;SDS011;64736;50.462;4.850;2022-10-30T12:23:54;8.00;;;6.03;;
76039;SDS011;64736;50.462;4.850;2022-10-30T12:26:23;8.13;;;4.32;;
76039;SDS011;64736;50.462;4.850;2022-10-30T12:28:52;8.73;;;3.35;;
76039;SDS011;64736;50.462;4.850;2022-10-30T12:34:25;7.43;;;3.80;;
76039;SDS011;64736;50.462;4.850;2022-10-30T12:37:05;8.70;;;3.83;;
76039;SDS011;64736;50.462;4.850;2022-10-30T12:39:46;8.17;;;3.77;;
76039;SDS011;64736;50.462;4.850;2022-10-30T12:43:45;7.00;;;3.63;;
76039;SDS011;64736;50.462;4.850;2022-10-30T12:45:45;7.78;;;3.53;;
76039;SDS011;64736;50.462;4.850;2022-10-30T12:48:15;8.35;;;3.92;;
76039;SDS011;64736;50.462;4.850;2022-10-30T12:56:30;7.05;;;3.28;;
76039;SDS011;64736;50.462;4.850;2022-10-30T13:02:00;10.50;;;3.40;;
76039;SDS011;64736;50.462;4.850;2022-10-30T13:05:05;7.57;;;3.17;;
76039;SDS011;64736;50.462;4.850;2022-10-30T13:08:04;9.00;;;3.83;;
76039;SDS011;64736;50.462;4.850;2022-10-30T13:10:55;8.82;;;3.00;;
76039;SDS011;64736;50.462;4.850;2022-10-30T13:13:39;7.35;;;2.80;;
76039;SDS011;64736;50.462;4.850;2022-10-30T13:16:15;6.97;;;3.00;;
76039;SDS011;64736;50.462;4.850;2022-10-30T13:18:47;6.35;;;3.03;;
76039;SDS011;64736;50.462;4.850;2022-10-30T13:21:20;6.55;;;2.97;;
76039;SDS011;64736;50.462;4.850;2022-10-30T13:23:54;6.65;;;2.88;;
76039;SDS011;64736;50.462;4.850;2022-10-30T13:56:32;6.50;;;3.13;;
76039;SDS011;64736;50.462;4.850;2022-10-30T14:04:19;6.32;;;3.10;;
76039;SDS011;64736;50.462;4.850;2022-10-30T14:07:13;8.48;;;3.15;;
76039;SDS011;64736;50.462;4.850;2022-10-30T14:12:45;7.00;;;3.30;;
76039;SDS011;64736;50.462;4.850;2022-10-30T14:15:33;7.80;;;3.22;;
76039;SDS011;64736;50.462;4.850;2022-10-30T14:20:45;9.60;;;3.67;;
76039;SDS011;64736;50.462;4.850;2022-10-30T14:23:13;11.45;;;4.30;;
76039;SDS011;64736;50.462;4.850;2022-10-30T14:28:30;9.27;;;3.42;;
76039;SDS011;64736;50.462;4.850;2022-10-30T14:33:44;10.43;;;3.25;;
76039;SDS011;64736;50.462;4.850;2022-10-30T14:36:16;6.70;;;3.42;;
76039;SDS011;64736;50.462;4.850;2022-10-30T14:38:55;7.85;;;3.33;;
76039;SDS011;64736;50.462;4.850;2022-10-30T14:44:09;9.05;;;3.40;;
76039;SDS011;64736;50.462;4.850;2022-10-30T14:47:19;8.15;;;3.75;;
76039;SDS011;64736;50.462;4.850;2022-10-30T14:56:06;7.97;;;3.17;;
76039;SDS011;64736;50.462;4.850;2022-10-30T14:58:43;6.70;;;3.28;;
76039;SDS011;64736;50.462;4.850;2022-10-30T15:07:13;9.52;;;3.78;;
76039;SDS011;64736;50.462;4.850;2022-10-30T15:14:59;7.18;;;3.40;;
76039;SDS011;64736;50.462;4.850;2022-10-30T15:19:53;8.45;;;3.60;;
76039;SDS011;64736;50.462;4.850;2022-10-30T15:22:19;8.50;;;3.85;;
76039;SDS011;64736;50.462;4.850;2022-10-30T15:24:48;9.95;;;3.70;;
76039;SDS011;64736;50.462;4.850;2022-10-30T15:27:16;12.10;;;3.45;;
76039;SDS011;64736;50.462;4.850;2022-10-30T15:29:49;8.32;;;3.28;;
76039;SDS011;64736;50.462;4.850;2022-10-30T15:32:19;7.88;;;3.63;;
76039;SDS011;64736;50.462;4.850;2022-10-30T15:37:18;8.88;;;3.28;;
76039;SDS011;64736;50.462;4.850;2022-10-30T15:39:44;12.00;;;3.63;;
76039;SDS011;64736;50.462;4.850;2022-10-30T15:42:09;10.75;;;4.13;;
76039;SDS011;64736;50.462;4.850;2022-10-30T15:44:36;9.60;;;4.15;;
76039;SDS011;64736;50.462;4.850;2022-10-30T15:47:16;10.75;;;3.70;;
76039;SDS011;64736;50.462;4.850;2022-10-30T15:49:49;11.63;;;4.85;;
76039;SDS011;64736;50.462;4.850;2022-10-30T15:55:05;11.57;;;4.35;;
76039;SDS011;64736;50.462;4.850;2022-10-30T15:57:35;10.55;;;5.22;;
76039;SDS011;64736;50.462;4.850;2022-10-30T16:00:06;9.10;;;4.50;;
76039;SDS011;64736;50.462;4.850;2022-10-30T16:02:46;8.63;;;4.53;;
76039;SDS011;64736;50.462;4.850;2022-10-30T16:05:19;11.30;;;4.38;;
76039;SDS011;64736;50.462;4.850;2022-10-30T16:07:46;9.23;;;4.18;;
76039;SDS011;64736;50.462;4.850;2022-10-30T16:10:14;8.60;;;4.53;;
76039;SDS011;64736;50.462;4.850;2022-10-30T16:12:41;10.10;;;4.22;;
76039;SDS011;64736;50.462;4.850;2022-10-30T16:15:14;9.07;;;4.55;;
76039;SDS011;64736;50.462;4.850;2022-10-30T16:17:47;11.52;;;5.57;;
76039;SDS011;64736;50.462;4.850;2022-10-30T16:20:12;7.50;;;4.78;;
76039;SDS011;64736;50.462;4.850;2022-10-30T16:22:40;10.70;;;5.43;;
76039;SDS011;64736;50.462;4.850;2022-10-30T16:25:06;13.48;;;6.60;;
76039;SDS011;64736;50.462;4.850;2022-10-30T16:27:33;15.60;;;6.40;;
76039;SDS011;64736;50.462;4.850;2022-10-30T16:30:10;15.90;;;10.93;;
76039;SDS011;64736;50.462;4.850;2022-10-30T16:32:38;18.92;;;10.10;;
76039;SDS011;64736;50.462;4.850;2022-10-30T16:35:05;12.80;;;6.90;;
76039;SDS011;64736;50.462;4.850;2022-10-30T16:37:33;24.95;;;13.95;;
76039;SDS011;64736;50.462;4.850;2022-10-30T16:40:19;16.00;;;11.07;;
76039;SDS011;64736;50.462;4.850;2022-10-30T16:42:50;13.02;;;6.72;;
76039;SDS011;64736;50.462;4.850;2022-10-30T16:47:51;11.90;;;5.53;;
76039;SDS011;64736;50.462;4.850;2022-10-30T16:50:22;9.55;;;5.57;;
76039;SDS011;64736;50.462;4.850;2022-10-30T16:53:07;11.32;;;5.95;;
76039;SDS011;64736;50.462;4.850;2022-10-30T16:55:42;12.55;;;6.57;;
76039;SDS011;64736;50.462;4.850;2022-10-30T16:58:08;11.93;;;5.30;;
76039;SDS011;64736;50.462;4.850;2022-10-30T17:00:35;10.30;;;5.28;;
76039;SDS011;64736;50.462;4.850;2022-10-30T17:03:09;10.65;;;5.97;;
76039;SDS011;64736;50.462;4.850;2022-10-30T17:05:36;10.65;;;5.18;;
76039;SDS011;64736;50.462;4.850;2022-10-30T17:08:03;11.60;;;5.32;;
76039;SDS011;64736;50.462;4.850;2022-10-30T17:10:33;10.02;;;5.05;;
76039;SDS011;64736;50.462;4.850;2022-10-30T17:16:30;10.20;;;5.72;;
76039;SDS011;64736;50.462;4.850;2022-10-30T17:21:54;10.25;;;5.05;;
76039;SDS011;64736;50.462;4.850;2022-10-30T17:24:22;12.13;;;5.47;;
76039;SDS011;64736;50.462;4.850;2022-10-30T17:26:56;9.60;;;5.00;;
76039;SDS011;64736;50.462;4.850;2022-10-30T17:29:42;9.93;;;4.95;;
76039;SDS011;64736;50.462;4.850;2022-10-30T17:35:15;11.80;;;5.78;;
76039;SDS011;64736;50.462;4.850;2022-10-30T17:37:42;11.13;;;5.57;;
76039;SDS011;64736;50.462;4.850;2022-10-30T17:40:08;10.18;;;5.63;;
76039;SDS011;64736;50.462;4.850;2022-10-30T17:42:34;12.07;;;5.68;;
76039;SDS011;64736;50.462;4.850;2022-10-30T17:45:00;11.15;;;5.43;;
76039;SDS011;64736;50.462;4.850;2022-10-30T17:47:26;11.40;;;5.40;;